Time;durP1;ratioP1;P1;durP2;ratioP2;P2;SDS_P1;SDS_P2;PMS_P1;PMS_P2;Temp;Humidity;BMP_temperature;BMP_pressure;BME280_temperature;BME280_humidity;BME280_pressure;Samples;Min_cycle;Max_cycle;Signal;HPM_P1;HPM_P2
2023/06/03 00:01:47;;;;;;;2.67;1.75;;;14.40;99.50;;;14.66;87.58;101345.94;5146368;28;20070;-71
2023/06/03 00:04:21;;;;;;;3.58;1.40;;;14.40;99.20;;;14.66;87.03;101345.94;5132669;28;20058;-71
2023/06/03 00:06:53;;;;;;;3.30;1.48;;;14.40;99.00;;;14.68;86.70;101346.91;5145637;28;20102;-71
2023/06/03 00:09:26;;;;;;;2.20;1.50;;;14.40;98.90;;;14.69;87.16;101340.78;5152633;28;20050;-72
2023/06/03 00:11:58;;;;;;;1.80;1.33;;;14.40;99.10;;;14.69;87.13;101343.41;5127664;28;20491;-71
2023/06/03 00:14:31;;;;;;;2.88;1.70;;;14.40;99.00;;;14.68;87.50;101335.50;5145274;28;20506;-71
2023/06/03 00:17:04;;;;;;;3.25;1.63;;;14.40;99.20;;;14.63;88.01;101340.63;5144483;28;20039;-71
2023/06/03 00:19:36;;;;;;;2.85;1.65;;;14.30;99.40;;;14.58;88.44;101337.88;5144489;28;20050;-70
2023/06/03 00:22:08;;;;;;;3.53;1.60;;;14.30;99.60;;;14.53;89.27;101342.09;5127772;28;20093;-72
2023/06/03 00:24:41;;;;;;;2.83;1.92;;;14.20;99.90;;;14.49;89.79;101340.25;5144944;28;20042;-71
2023/06/03 00:27:13;;;;;;;2.65;1.52;;;14.20;99.90;;;14.44;90.22;101338.31;5127464;28;20047;-71
2023/06/03 00:29:46;;;;;;;3.22;1.55;;;14.20;99.90;;;14.38;90.94;101341.66;5151064;28;20396;-72
2023/06/03 00:32:18;;;;;;;2.92;1.58;;;14.10;99.90;;;14.32;91.60;101331.88;5151257;28;20042;-71
2023/06/03 00:34:50;;;;;;;2.50;1.70;;;14.00;99.90;;;14.27;92.01;101333.47;5128165;28;20142;-71
2023/06/03 00:37:22;;;;;;;3.15;1.80;;;14.00;99.90;;;14.23;92.29;101326.38;5152623;28;20049;-70
2023/06/03 00:39:54;;;;;;;2.33;1.40;;;14.00;99.90;;;14.17;92.82;101326.22;5138469;28;20038;-71
2023/06/03 00:42:26;;;;;;;2.85;1.73;;;13.90;99.90;;;14.12;93.52;101322.56;5131191;28;20047;-71
2023/06/03 00:45:00;;;;;;;1.92;1.27;;;13.80;99.90;;;14.07;93.56;101321.53;5156514;28;20052;-70
2023/06/03 00:47:33;;;;;;;2.72;1.45;;;13.80;99.90;;;14.01;94.09;101318.72;5163051;28;20052;-71
2023/06/03 00:50:07;;;;;;;2.92;1.75;;;13.80;99.90;;;13.95;94.03;101314.19;5126768;28;20047;-72
2023/06/03 00:52:41;;;;;;;3.30;1.50;;;13.70;99.90;;;13.90;94.44;101314.94;5126937;28;20078;-72
2023/06/03 00:55:14;;;;;;;2.53;1.42;;;13.60;99.90;;;13.85;94.67;101313.06;5126802;28;20141;-71
2023/06/03 00:57:46;;;;;;;2.78;1.65;;;13.60;99.90;;;13.80;95.24;101314.63;5134394;28;20061;-71
2023/06/03 01:00:21;;;;;;;3.35;1.80;;;13.60;99.90;;;13.75;94.91;101308.38;5126180;28;20414;-71
2023/06/03 01:02:55;;;;;;;2.60;1.45;;;13.50;99.90;;;13.69;95.59;101313.44;5137212;28;20046;-71
2023/06/03 01:05:28;;;;;;;1.98;1.48;;;13.50;99.90;;;13.66;95.93;101315.97;5148453;28;20074;-71
2023/06/03 01:08:18;;;;;;;2.30;1.85;;;13.40;99.90;;;13.61;96.27;101317.53;5144576;28;20043;-71
2023/06/03 01:11:00;;;;;;;2.88;1.83;;;13.40;99.90;;;13.56;96.58;101311.25;5126494;28;20047;-70
2023/06/03 01:13:40;;;;;;;3.17;1.42;;;13.30;99.90;;;13.53;96.86;101319.03;5127173;28;20043;-71
2023/06/03 01:16:17;;;;;;;3.45;1.55;;;13.30;99.90;;;13.49;97.05;101317.16;5126973;28;20042;-71
2023/06/03 01:18:50;;;;;;;3.58;1.90;;;13.30;99.90;;;13.44;97.37;101318.78;5151276;28;20064;-71
2023/06/03 01:21:24;;;;;;;2.45;1.73;;;13.20;99.90;;;13.42;97.55;101320.44;5143035;28;20069;-71
2023/06/03 01:23:57;;;;;;;3.75;1.52;;;13.20;99.90;;;13.36;97.81;101321.13;5126601;28;20050;-71
2023/06/03 01:26:31;;;;;;;5.03;2.00;;;13.10;99.90;;;13.34;98.20;101316.69;5144093;28;20050;-72
2023/06/03 01:29:03;;;;;;;2.80;1.60;;;13.10;99.90;;;13.28;98.48;101310.41;5144054;28;20049;-71
2023/06/03 01:31:35;;;;;;;3.40;1.83;;;13.10;99.90;;;13.27;98.74;101307.75;5126053;28;20039;-72
2023/06/03 01:34:07;;;;;;;3.65;1.77;;;13.00;99.90;;;13.23;99.29;101314.59;5150582;28;20133;-71
2023/06/03 01:36:39;;;;;;;3.47;1.58;;;13.00;99.90;;;13.21;99.11;101310.16;5143787;28;20046;-71
2023/06/03 01:39:14;;;;;;;3.53;1.90;;;13.00;99.90;;;13.18;99.49;101303.09;5143663;28;20403;-71
2023/06/03 01:41:49;;;;;;;4.03;2.03;;;13.00;99.90;;;13.16;99.61;101312.59;5134045;28;20422;-71
2023/06/03 01:44:22;;;;;;;3.15;1.80;;;12.90;99.90;;;13.13;99.55;101309.88;5126466;28;20050;-70
2023/06/03 01:46:57;;;;;;;4.00;2.00;;;12.90;99.90;;;13.11;100.00;101313.31;5146633;28;20050;-72
2023/06/03 01:49:31;;;;;;;1.95;1.55;;;12.90;99.90;;;13.06;99.95;101313.16;5130106;28;20133;-71
2023/06/03 01:52:04;;;;;;;4.53;2.15;;;12.90;99.90;;;13.04;100.00;101314.84;5134626;28;20412;-72
2023/06/03 01:54:38;;;;;;;3.35;2.10;;;12.80;99.90;;;13.03;100.00;101311.31;5129178;28;20145;-71
2023/06/03 01:57:10;;;;;;;2.55;1.80;;;12.80;99.90;;;13.02;100.00;101316.50;5144233;28;20499;-71
2023/06/03 01:59:42;;;;;;;2.40;1.50;;;12.80;99.90;;;13.01;100.00;101313.00;5125789;28;20101;-71
2023/06/03 02:02:14;;;;;;;2.67;1.58;;;12.80;99.90;;;13.01;100.00;101322.56;5131077;28;20097;-71
2023/06/03 02:04:47;;;;;;;2.95;1.83;;;12.80;99.90;;;12.98;100.00;101312.91;5135470;28;20518;-72
2023/06/03 02:07:20;;;;;;;2.85;1.52;;;12.70;99.90;;;12.94;100.00;101315.34;5143465;28;20041;-71
2023/06/03 02:09:54;;;;;;;3.25;2.00;;;12.70;99.90;;;12.92;100.00;101317.94;5125887;28;20335;-71
2023/06/03 02:12:27;;;;;;;2.97;1.80;;;12.70;99.90;;;12.91;100.00;101316.16;5143722;28;20043;-71
2023/06/03 02:14:59;;;;;;;3.83;2.20;;;12.70;99.90;;;12.90;100.00;101319.59;5125853;28;20074;-71
2023/06/03 02:17:32;;;;;;;4.30;1.75;;;12.70;99.90;;;12.87;100.00;101314.25;5151379;28;20054;-71
2023/06/03 02:20:06;;;;;;;3.67;1.73;;;12.70;99.90;;;12.86;100.00;101316.84;5149597;28;20043;-71
2023/06/03 02:22:38;;;;;;;2.80;1.90;;;12.70;99.90;;;12.85;100.00;101312.44;5143367;28;20031;-71
2023/06/03 02:25:13;;;;;;;3.95;2.00;;;12.60;99.90;;;12.84;100.00;101313.25;5125946;28;20408;-72
2023/06/03 02:27:45;;;;;;;4.05;1.92;;;12.60;99.90;;;12.80;100.00;101306.16;5143259;28;20047;-71
2023/06/03 02:30:18;;;;;;;3.97;2.10;;;12.60;99.90;;;12.77;100.00;101306.94;5125515;28;20050;-71
2023/06/03 02:32:50;;;;;;;3.50;1.83;;;12.60;99.90;;;12.74;100.00;101312.97;5131317;28;20057;-72
2023/06/03 02:35:22;;;;;;;4.20;2.17;;;12.60;99.90;;;12.70;100.00;101318.91;5152680;28;20065;-72
2023/06/03 02:37:54;;;;;;;4.47;1.83;;;12.50;99.90;;;12.67;100.00;101316.19;5147259;28;20049;-71
2023/06/03 02:40:27;;;;;;;4.80;2.40;;;12.50;99.90;;;12.65;100.00;101316.97;5129266;28;20142;-70
2023/06/03 02:42:59;;;;;;;5.20;1.90;;;12.50;99.90;;;12.62;100.00;101315.16;5129629;28;20054;-72
2023/06/03 02:45:31;;;;;;;4.00;1.92;;;12.40;99.90;;;12.63;100.00;101316.03;5129731;28;20053;-71
2023/06/03 02:48:04;;;;;;;3.53;2.00;;;12.50;99.90;;;12.59;100.00;101315.06;5129711;28;20511;-71
2023/06/03 02:50:37;;;;;;;5.03;1.83;;;12.40;99.90;;;12.57;100.00;101314.09;5129608;28;20055;-71
2023/06/03 02:53:09;;;;;;;4.43;2.05;;;12.40;99.90;;;12.56;100.00;101308.81;5134352;28;20057;-71
2023/06/03 02:55:44;;;;;;;4.32;2.10;;;12.40;99.90;;;12.56;100.00;101327.13;5132330;28;20050;-70
2023/06/03 02:58:16;;;;;;;4.00;1.92;;;12.40;99.90;;;12.54;100.00;101323.56;5129638;28;20047;-71
2023/06/03 03:00:48;;;;;;;2.88;1.95;;;12.40;99.90;;;12.52;100.00;101325.22;5129134;28;20046;-72
2023/06/03 03:03:20;;;;;;;4.95;2.30;;;12.30;99.90;;;12.49;100.00;101328.63;5129443;28;20503;-71
2023/06/03 03:05:54;;;;;;;3.42;2.10;;;12.30;99.90;;;12.47;100.00;101333.81;5149032;28;20047;-71
2023/06/03 03:08:26;;;;;;;3.47;1.98;;;12.30;99.90;;;12.44;100.00;101330.19;5152011;28;20134;-71
2023/06/03 03:11:00;;;;;;;3.60;2.00;;;12.20;99.90;;;12.41;100.00;101332.72;5129101;28;20050;-72
2023/06/03 03:13:32;;;;;;;2.88;2.15;;;12.20;99.90;;;12.39;100.00;101337.00;5137358;28;20520;-71
2023/06/03 03:16:05;;;;;;;2.60;1.70;;;12.20;99.90;;;12.36;100.00;101334.25;5129014;28;20109;-71
2023/06/03 03:18:40;;;;;;;2.70;1.73;;;12.20;99.90;;;12.33;100.00;101335.06;5145228;28;20074;-71
2023/06/03 03:21:15;;;;;;;2.47;1.63;;;12.10;99.90;;;12.29;100.00;101333.16;5136814;28;20050;-70
2023/06/03 03:23:47;;;;;;;5.43;2.00;;;12.10;99.90;;;12.27;100.00;101344.41;5129309;28;20463;-71
2023/06/03 03:26:24;;;;;;;4.50;2.33;;;12.10;99.90;;;12.25;100.00;101340.81;5128633;28;20054;-71
2023/06/03 03:28:57;;;;;;;3.30;2.00;;;12.10;99.90;;;12.21;100.00;101343.31;5128400;28;20043;-71
2023/06/03 03:31:30;;;;;;;6.28;2.33;;;12.10;99.90;;;12.19;100.00;101338.84;5128591;28;20043;-70
2023/06/03 03:34:04;;;;;;;4.93;2.03;;;12.00;99.90;;;12.19;100.00;101349.31;5128998;28;20055;-70
2023/06/03 03:36:37;;;;;;;4.43;1.73;;;12.00;99.90;;;12.17;100.00;101348.38;5154139;28;20039;-71
2023/06/03 03:39:15;;;;;;;3.20;1.63;;;12.00;99.90;;;12.16;100.00;101352.72;5151419;28;20039;-71
2023/06/03 03:41:55;;;;;;;3.53;1.63;;;12.00;99.90;;;12.16;100.00;101350.09;5145768;28;20054;-71
2023/06/03 03:44:31;;;;;;;4.28;2.03;;;12.00;99.90;;;12.17;100.00;101349.25;5127751;28;20047;-71
2023/06/03 03:47:05;;;;;;;3.78;1.80;;;12.00;99.90;;;12.18;100.00;101352.75;5128887;28;20074;-71
2023/06/03 03:49:40;;;;;;;2.95;2.00;;;12.00;99.90;;;12.17;100.00;101345.75;5128640;28;20070;-70
2023/06/03 03:52:26;;;;;;;4.32;2.17;;;12.00;99.90;;;12.18;100.00;101356.25;5141464;28;20569;-71
2023/06/03 03:55:01;;;;;;;3.15;1.83;;;12.00;99.90;;;12.19;100.00;101357.16;5145470;28;20142;-71
2023/06/03 03:57:38;;;;;;;3.70;1.83;;;12.00;99.90;;;12.18;100.00;101361.50;5128294;28;20057;-71
2023/06/03 04:00:13;;;;;;;3.58;2.03;;;12.00;99.90;;;12.18;100.00;101361.50;5128267;28;20062;-70
2023/06/03 04:02:49;;;;;;;2.70;1.80;;;12.00;99.90;;;12.18;100.00;101356.25;5145487;28;20051;-70
2023/06/03 04:05:22;;;;;;;3.97;2.05;;;12.00;99.90;;;12.20;100.00;101362.47;5145757;28;20117;-71
2023/06/03 04:07:55;;;;;;;4.20;2.33;;;12.00;99.90;;;12.21;100.00;101360.75;5130210;28;20133;-71
2023/06/03 04:10:27;;;;;;;3.30;2.00;;;12.00;99.90;;;12.22;100.00;101357.28;5133404;28;20129;-71
2023/06/03 04:13:00;;;;;;;3.05;1.63;;;12.00;99.90;;;12.23;100.00;101365.19;5145880;28;20046;-70
2023/06/03 04:15:34;;;;;;;4.13;2.03;;;12.00;99.90;;;12.27;100.00;101362.69;5132810;28;20416;-71
2023/06/03 04:18:07;;;;;;;2.88;1.90;;;12.10;99.90;;;12.33;100.00;101355.06;5144310;28;20046;-71
2023/06/03 04:20:44;;;;;;;3.47;1.98;;;12.10;99.90;;;12.36;100.00;101349.94;5127560;28;20408;-71
2023/06/03 04:23:19;;;;;;;4.47;1.83;;;12.20;99.90;;;12.39;100.00;101358.81;5127939;28;20555;-71
2023/06/03 04:25:53;;;;;;;5.35;2.15;;;12.20;99.90;;;12.42;100.00;101351.06;5127770;28;20558;-72
2023/06/03 04:28:27;;;;;;;4.60;1.80;;;12.30;99.90;;;12.47;100.00;101357.34;5127946;28;20130;-71
2023/06/03 04:30:59;;;;;;;4.50;2.22;;;12.30;99.90;;;12.52;100.00;101360.13;5135332;28;20531;-70
2023/06/03 04:33:31;;;;;;;3.88;1.90;;;12.30;99.90;;;12.56;100.00;101359.38;5144574;28;20039;-71
2023/06/03 04:36:04;;;;;;;3.88;1.83;;;12.40;99.90;;;12.61;100.00;101360.44;5127541;28;20047;-70
2023/06/03 04:38:36;;;;;;;2.10;1.40;;;12.40;99.90;;;12.67;100.00;101363.28;5127812;28;20045;-71
2023/06/03 04:41:10;;;;;;;2.85;1.67;;;12.50;99.90;;;12.73;100.00;101358.28;5127394;28;20126;-71
2023/06/03 04:43:45;;;;;;;2.38;1.58;;;12.50;99.90;;;12.81;100.00;101355.91;5136500;28;20042;-71
2023/06/03 04:46:19;;;;;;;3.47;1.70;;;12.60;99.90;;;12.93;100.00;101363.31;5148470;28;20046;-71
2023/06/03 04:48:53;;;;;;;4.07;1.65;;;12.70;99.90;;;13.16;100.00;101354.47;5141758;28;20043;-71
2023/06/03 04:51:27;;;;;;;2.80;1.58;;;12.90;99.90;;;13.54;100.00;101353.13;5144876;28;20089;-70
2023/06/03 04:54:00;;;;;;;2.08;1.50;;;13.20;99.90;;;14.09;94.86;101354.84;5144760;28;20126;-70
2023/06/03 04:56:32;;;;;;;3.25;1.35;;;13.60;99.90;;;14.69;90.79;101361.78;5127305;28;20049;-70
2023/06/03 04:59:09;;;;;;;2.30;1.33;;;14.10;99.90;;;15.24;83.93;101368.44;5127554;28;20055;-71
2023/06/03 05:01:50;;;;;;;2.22;1.40;;;14.60;99.90;;;15.83;76.43;101363.75;5135820;28;20046;-70
2023/06/03 05:04:29;;;;;;;;;;;15.20;98.00;;;16.32;72.99;101359.56;5127746;28;20459;-70
2023/06/03 05:07:02;;;;;;;2.40;1.33;;;15.70;96.10;;;16.79;68.89;101363.13;5126928;28;19950;-71
2023/06/03 05:09:34;;;;;;;2.97;1.35;;;16.10;93.60;;;17.23;66.01;101364.78;5126938;28;20183;-71
2023/06/03 05:12:09;;;;;;;4.28;1.30;;;16.50;92.00;;;17.55;65.31;101358.28;5127107;28;20055;-71
2023/06/03 05:14:43;;;;;;;1.92;1.20;;;16.90;90.80;;;17.92;63.27;101361.44;5126614;28;20061;-71
2023/06/03 05:17:16;;;;;;;2.28;1.13;;;17.20;88.70;;;18.34;62.87;101358.50;5160078;23;20038;-80
2023/06/03 05:19:49;;;;;;;4.65;1.33;;;17.60;87.60;;;18.71;62.50;101364.19;5163456;28;20041;-79
2023/06/03 05:22:21;;;;;;;1.30;0.90;;;17.90;86.90;;;18.98;59.70;101368.91;5160966;28;20045;-80
2023/06/03 05:24:54;;;;;;;3.10;1.20;;;18.20;82.90;;;19.35;58.13;101356.88;5179420;28;20112;-79
2023/06/03 05:27:27;;;;;;;2.42;1.10;;;18.60;81.30;;;19.65;57.45;101361.53;5147446;28;20042;-80
2023/06/03 05:30:02;;;;;;;1.88;0.90;;;18.80;79.10;;;19.85;56.37;101366.94;5143965;28;20431;-80
2023/06/03 05:32:37;;;;;;;2.00;0.93;;;19.00;77.00;;;20.12;56.81;101370.59;5117470;28;20061;-80
2023/06/03 05:35:10;;;;;;;1.55;1.08;;;19.30;77.50;;;20.43;56.57;101368.97;5142727;28;20035;-80
2023/06/03 05:37:43;;;;;;;1.60;1.05;;;19.60;76.80;;;20.74;55.94;101370.00;5144400;28;20062;-81
2023/06/03 05:40:17;;;;;;;1.83;0.80;;;19.90;75.70;;;21.01;52.83;101372.69;5152358;28;20436;-80
2023/06/03 05:42:55;;;;;;;2.03;0.82;;;20.20;72.40;;;21.20;51.09;101376.22;5130242;28;20144;-80
2023/06/03 05:45:30;;;;;;;1.95;0.80;;;20.40;69.50;;;21.29;51.19;101363.00;5160405;28;20049;-81
2023/06/03 05:48:03;;;;;;;1.63;0.73;;;20.50;69.00;;;21.19;49.69;101371.81;5144442;28;20456;-80
2023/06/03 05:50:39;;;;;;;1.27;0.95;;;20.60;66.80;;;21.12;49.48;101368.25;5138402;28;20043;-81
2023/06/03 05:53:11;;;;;;;2.78;1.00;;;20.50;66.00;;;21.19;48.33;101378.84;5151024;28;20457;-80
2023/06/03 05:55:45;;;;;;;3.33;0.90;;;20.50;64.90;;;21.05;47.27;101374.44;5149814;28;20058;-80
2023/06/03 05:58:19;;;;;;;1.55;0.80;;;20.50;63.10;;;20.71;48.31;101372.63;5142680;28;20039;-82
2023/06/03 06:00:55;;;;;;;3.75;1.60;;;20.30;63.40;;;20.69;48.99;101369.97;5135567;28;20387;-82
2023/06/03 06:03:27;;;;;;;1.65;0.90;;;20.30;64.00;;;20.85;48.42;101371.75;5152397;28;20491;-80
2023/06/03 06:06:02;;;;;;;2.10;0.77;;;20.40;63.40;;;21.20;48.15;101370.94;5129825;28;20050;-80
2023/06/03 06:08:35;;;;;;;2.05;0.70;;;20.50;63.20;;;21.61;47.27;101367.41;5131965;28;20050;-79
2023/06/03 06:11:10;;;;;;;1.63;0.70;;;20.80;62.40;;;21.69;45.92;101368.25;5142372;28;20121;-79
2023/06/03 06:13:45;;;;;;;1.92;0.65;;;21.00;60.90;;;21.66;46.26;101362.97;5141648;28;20046;-79
2023/06/03 06:16:20;;;;;;;4.45;1.00;;;21.00;60.70;;;21.67;45.84;101365.63;5122263;28;20046;-79
2023/06/03 06:18:53;;;;;;;1.38;0.68;;;21.00;60.40;;;21.57;45.83;101362.97;5137259;28;20470;-78
2023/06/03 06:21:27;;;;;;;1.75;0.90;;;21.00;60.00;;;21.51;46.36;101362.97;5132360;28;20101;-78
2023/06/03 06:24:02;;;;;;;2.22;0.88;;;21.00;60.20;;;21.70;46.95;101367.38;5142703;28;20066;-79
2023/06/03 06:26:35;;;;;;;3.35;0.93;;;21.10;61.00;;;22.03;45.92;101368.16;5148395;28;20511;-79
2023/06/03 06:29:08;;;;;;;1.88;0.90;;;21.30;60.20;;;22.18;45.22;101366.41;5125938;28;20135;-78
2023/06/03 06:31:41;;;;;;;1.25;0.80;;;21.50;59.40;;;22.60;46.29;101367.06;5153349;28;20547;-74
2023/06/03 06:34:17;;;;;;;3.35;0.90;;;21.80;60.60;;;22.59;43.71;101373.28;5144876;28;20049;-74
2023/06/03 06:36:52;;;;;;;4.07;0.98;;;21.90;57.60;;;22.40;44.80;101364.50;5140944;28;20047;-74
2023/06/03 06:39:49;;;;;;;1.15;0.80;;;21.80;58.20;;;22.20;44.59;101371.69;5135491;28;20078;-74
2023/06/03 06:42:32;;;;;;;2.97;0.90;;;21.70;58.00;;;21.84;44.80;101365.59;5138642;28;20150;-75
2023/06/03 06:45:17;;;;;;;2.08;0.63;;;21.50;57.70;;;21.80;45.00;101369.13;5153101;28;20046;-75
2023/06/03 06:48:03;;;;;;;1.05;0.73;;;21.40;58.60;;;21.68;44.82;101361.19;5154436;28;20058;-74
2023/06/03 06:50:49;;;;;;;2.40;0.82;;;21.20;58.30;;;21.84;45.19;101362.03;5154009;28;20097;-79
2023/06/03 06:53:27;;;;;;;2.35;0.80;;;21.30;58.10;;;21.52;45.56;101364.78;5131433;28;20043;-78
2023/06/03 06:56:06;;;;;;;4.05;1.02;;;21.20;58.30;;;21.29;47.53;101373.59;5106057;28;20869;-75
2023/06/03 06:58:43;;;;;;;1.92;0.88;;;20.90;60.00;;;21.44;46.96;101371.81;5145356;28;20053;-73
2023/06/03 07:01:16;;;;;;;2.28;0.70;;;20.90;59.50;;;21.51;46.70;101373.59;5125736;28;20047;-72
2023/06/03 07:03:53;;;;;;;1.48;0.73;;;21.00;59.40;;;21.67;47.16;101365.63;5127733;28;20042;-74
2023/06/03 07:06:26;;;;;;;1.27;0.70;;;21.10;59.70;;;21.90;47.00;101368.19;5141030;28;20090;-74
2023/06/03 07:09:04;;;;;;;1.80;0.77;;;21.20;59.80;;;22.13;46.54;101367.28;5128747;28;20087;-77
2023/06/03 07:11:44;;;;;;;1.70;0.77;;;21.40;59.60;;;22.29;46.72;101368.97;5148958;28;20042;-76
2023/06/03 07:14:16;;;;;;;1.73;0.80;;;21.60;59.70;;;22.40;46.75;101367.16;5157048;28;20035;-77
2023/06/03 07:16:50;;;;;;;1.42;0.80;;;21.70;59.70;;;22.48;46.29;101368.00;5126750;28;20683;-78
2023/06/03 07:19:27;;;;;;;;;;;21.80;59.30;;;22.62;46.43;101370.59;5141778;28;20046;-77
2023/06/03 07:22:01;;;;;;;2.67;0.80;;;21.90;59.30;;;22.74;45.30;101364.31;5171107;28;19922;-75
2023/06/03 07:24:37;;;;;;;1.33;0.93;;;22.00;58.10;;;22.91;45.77;101357.16;5132910;28;20097;-76
2023/06/03 07:27:23;;;;;;;3.15;1.15;;;22.20;58.80;;;23.15;45.41;101356.09;5160081;28;20039;-76
2023/06/03 07:29:58;;;;;;;1.60;0.93;;;22.30;58.50;;;23.24;45.24;101352.47;5162748;28;20043;-75
2023/06/03 07:32:30;;;;;;;2.20;0.73;;;22.50;58.30;;;23.29;44.66;101351.53;5142655;28;20044;-75
2023/06/03 07:35:08;;;;;;;1.95;0.80;;;22.60;57.90;;;23.44;44.43;101361.16;5148486;28;20112;-75
2023/06/03 07:37:40;;;;;;;1.45;0.82;;;22.70;57.40;;;23.58;44.69;101353.03;5155372;28;20038;-74
2023/06/03 07:40:16;;;;;;;1.48;0.80;;;22.80;57.40;;;23.72;44.40;101355.59;5112129;28;20408;-74
2023/06/03 07:42:57;;;;;;;2.83;1.10;;;22.90;57.40;;;23.91;44.62;101353.59;5128886;28;20042;-75
2023/06/03 07:45:29;;;;;;;;;;;23.00;57.50;;;24.03;44.45;101356.13;5145240;28;20057;-76
2023/06/03 07:48:03;;;;;;;1.40;0.73;;;23.20;57.50;;;24.22;43.88;101355.00;5148721;28;19944;-83
2023/06/03 07:50:36;;;;;;;2.08;0.70;;;23.30;57.00;;;24.31;43.60;101354.00;5165061;28;20441;-77
2023/06/03 07:53:09;;;;;;;2.72;0.80;;;23.40;56.60;;;24.48;43.83;101362.69;5129698;28;20043;-81
2023/06/03 07:55:46;;;;;;;2.05;0.90;;;23.50;56.90;;;24.57;43.64;101357.22;5127592;28;20133;-75
2023/06/03 07:58:19;;;;;;;2.13;0.82;;;23.60;56.70;;;24.45;43.37;101361.84;5131352;28;20054;-75
2023/06/03 08:00:54;;;;;;;1.35;0.73;;;23.60;56.20;;;24.41;43.14;101357.47;5131022;28;20046;-74
2023/06/03 08:03:27;;;;;;;1.25;1.00;;;23.50;56.10;;;24.22;44.19;101359.47;5141265;28;20050;-71
2023/06/03 08:06:01;;;;;;;0.85;0.70;;;23.40;56.60;;;24.38;43.93;101366.38;5148902;28;20070;-74
2023/06/03 08:08:35;;;;;;;3.60;0.85;;;23.40;56.60;;;24.91;42.91;101356.75;5158839;28;20050;-74
2023/06/03 08:11:08;;;;;;;2.25;1.17;;;23.60;56.50;;;25.40;42.24;101355.94;5147870;28;20080;-72
2023/06/03 08:13:40;;;;;;;1.95;1.00;;;23.80;56.00;;;25.94;42.00;101347.84;5164751;28;20399;-72
2023/06/03 08:16:20;;;;;;;1.95;0.80;;;24.20;56.20;;;26.25;41.64;101354.31;5138652;28;20047;-74
2023/06/03 08:18:54;;;;;;;1.40;0.75;;;24.40;56.60;;;26.85;40.71;101353.00;5156342;28;20049;-74
2023/06/03 08:21:33;;;;;;;1.40;0.95;;;24.60;55.20;;;27.43;40.34;101358.72;5159114;28;20044;-72
2023/06/03 08:24:08;;;;;;;1.42;0.80;;;25.00;55.40;;;27.97;39.30;101351.00;5136054;28;20057;-73
2023/06/03 08:26:40;;;;;;;3.25;0.90;;;25.30;54.80;;;28.18;38.44;101354.00;5157340;28;20050;-73
2023/06/03 08:29:13;;;;;;;1.58;0.90;;;25.50;53.90;;;28.64;37.77;101351.72;5152348;28;20097;-73
2023/06/03 08:31:45;;;;;;;1.08;0.75;;;25.70;53.30;;;29.50;37.26;101345.31;5142750;28;20054;-74
2023/06/03 08:34:17;;;;;;;1.45;0.95;;;26.10;53.40;;;30.79;36.27;101353.06;5140184;28;20498;-73
2023/06/03 08:36:51;;;;;;;2.40;0.80;;;26.80;53.40;;;31.86;34.67;101345.81;5157077;28;20046;-73
2023/06/03 08:39:23;;;;;;;;;;;27.50;52.30;;;32.27;32.03;101348.41;5141122;28;20049;-74
2023/06/03 08:41:59;;;;;;;2.92;0.90;;;28.10;49.60;;;31.43;33.77;101349.50;5151789;28;19922;-73
2023/06/03 08:44:49;;;;;;;2.05;1.10;;;27.90;50.00;;;30.06;35.39;101345.09;5146364;28;20714;-73
2023/06/03 08:47:31;;;;;;;1.65;0.98;;;27.50;50.30;;;30.42;34.43;101341.03;5163137;28;20057;-73
2023/06/03 08:50:08;;;;;;;2.85;1.35;;;27.50;50.00;;;31.06;33.73;101335.75;5154568;28;20057;-72
2023/06/03 08:52:46;;;;;;;3.38;1.02;;;27.90;49.30;;;31.40;33.00;101337.03;5150935;28;20051;-73
2023/06/03 08:55:19;;;;;;;1.98;1.00;;;28.30;48.30;;;30.79;33.59;101331.53;5131806;28;20038;-74
2023/06/03 08:57:57;;;;;;;;;;;28.00;48.70;;;31.21;33.23;101333.34;5157232;28;20047;-73
2023/06/03 09:00:30;;;;;;;2.92;1.00;;;28.30;48.50;;;31.62;32.59;101334.28;5151245;28;20386;-72
2023/06/03 09:03:04;;;;;;;3.80;1.20;;;28.60;47.80;;;31.96;31.87;101333.69;5151933;28;20047;-72
2023/06/03 09:05:37;;;;;;;1.70;1.17;;;28.90;47.20;;;32.45;32.21;101336.78;5145373;28;20499;-73
2023/06/03 09:08:12;;;;;;;1.73;0.90;;;29.30;47.70;;;32.60;31.89;101341.47;5151280;28;20063;-73
2023/06/03 09:10:46;;;;;;;1.45;1.02;;;29.40;47.30;;;32.00;31.75;101337.97;5152370;28;20506;-73
2023/06/03 09:13:20;;;;;;;2.83;1.20;;;29.10;46.60;;;31.90;32.05;101341.19;5162813;28;20443;-72
2023/06/03 09:15:54;;;;;;;1.92;1.05;;;29.00;47.00;;;32.12;32.48;101344.63;5143153;28;20047;-73
2023/06/03 09:18:28;;;;;;;3.03;1.25;;;29.20;47.40;;;31.54;32.54;101337.31;5148550;28;20039;-73
2023/06/03 09:21:00;;;;;;;2.38;1.20;;;28.90;47.00;;;31.79;32.81;101336.25;5151362;28;20057;-73
2023/06/03 09:23:35;;;;;;;1.70;0.95;;;29.00;47.20;;;31.80;33.10;101335.31;5158078;28;20112;-76
2023/06/03 09:26:08;;;;;;;18.50;2.08;;;29.20;47.50;;;31.41;33.57;101336.09;5131600;28;20514;-74
2023/06/03 09:28:40;;;;;;;19.83;2.42;;;29.20;47.50;;;31.06;34.66;101333.06;5136661;28;20051;-75
2023/06/03 09:31:13;;;;;;;8.60;1.60;;;29.10;48.20;;;30.85;35.06;101342.06;5136108;28;20097;-73
2023/06/03 09:33:47;;;;;;;8.40;1.40;;;29.10;48.40;;;29.75;35.50;101329.25;5135127;28;20038;-73
2023/06/03 09:36:21;;;;;;;4.90;1.48;;;28.50;48.50;;;28.81;36.58;101329.69;5137951;28;20078;-74
2023/06/03 09:38:57;;;;;;;3.17;1.40;;;27.90;48.30;;;27.95;36.91;101330.56;5138650;28;20541;-74
2023/06/03 09:41:30;;;;;;;3.70;1.20;;;27.30;48.50;;;26.79;38.49;101324.59;5134010;28;20050;-74
2023/06/03 09:44:08;;;;;;;4.18;1.33;;;26.40;49.20;;;26.11;39.45;101334.16;5154409;28;20088;-74
2023/06/03 09:46:50;;;;;;;4.95;1.20;;;25.70;49.90;;;26.05;40.31;101327.13;5145033;28;20045;-74
2023/06/03 09:49:22;;;;;;;2.53;1.35;;;25.50;50.70;;;25.97;39.58;101323.75;5155402;28;20042;-73
2023/06/03 09:51:55;;;;;;;4.18;1.20;;;25.40;50.20;;;25.90;40.89;101320.34;5154896;28;20045;-73
2023/06/03 09:54:29;;;;;;;2.75;1.20;;;25.30;51.40;;;25.53;41.43;101322.78;5134775;28;20062;-74
2023/06/03 09:57:12;;;;;;;3.13;1.40;;;25.10;51.80;;;25.32;42.13;101324.06;5153519;28;20805;-73
2023/06/03 09:59:46;;;;;;;3.05;0.90;;;24.90;52.00;;;25.38;41.13;101317.75;5141878;28;20057;-73
2023/06/03 10:02:23;;;;;;;4.70;1.30;;;24.90;51.40;;;25.62;41.83;101317.25;5161441;28;20158;-74
2023/06/03 10:04:55;;;;;;;2.90;1.40;;;25.00;52.10;;;25.82;41.45;101326.72;5165613;28;20034;-74
2023/06/03 10:07:27;;;;;;;3.53;1.20;;;25.10;51.90;;;25.69;40.45;101321.59;5134455;28;20055;-73
2023/06/03 10:10:08;;;;;;;4.55;1.30;;;25.10;50.80;;;25.75;41.22;101314.41;5158257;28;20061;-73
2023/06/03 10:12:40;;;;;;;4.25;1.20;;;25.10;51.50;;;25.77;40.91;101317.94;5157048;28;20491;-74
2023/06/03 10:15:13;;;;;;;3.63;1.33;;;25.10;51.60;;;25.71;41.65;101319.78;5159442;28;20050;-74
2023/06/03 10:17:47;;;;;;;3.50;1.33;;;25.10;52.10;;;25.68;40.66;101314.47;5158266;28;20042;-73
2023/06/03 10:20:34;;;;;;;3.13;1.27;;;25.10;51.30;;;25.65;41.41;101311.00;5153554;28;20104;-74
2023/06/03 10:23:08;;;;;;;4.10;1.45;;;25.00;51.70;;;25.58;41.68;101322.72;5136122;28;20112;-73
2023/06/03 10:25:45;;;;;;;3.00;1.10;;;24.90;52.10;;;25.60;42.09;101313.75;5156748;28;20056;-73
2023/06/03 10:28:17;;;;;;;2.70;1.08;;;24.90;52.00;;;25.66;41.07;101308.31;5161188;28;20113;-73
2023/06/03 10:30:51;;;;;;;2.25;1.15;;;25.00;51.40;;;25.68;41.59;101311.81;5144889;28;20043;-74
2023/06/03 10:33:24;;;;;;;1.83;0.90;;;25.00;51.80;;;25.75;41.95;101309.94;5159408;28;20604;-75
2023/06/03 10:35:58;;;;;;;3.75;1.30;;;25.10;52.10;;;25.57;41.53;101320.97;5144900;28;20042;-74
2023/06/03 10:38:31;;;;;;;3.53;1.50;;;24.90;51.50;;;25.54;40.88;101318.34;5135836;28;20133;-74
2023/06/03 10:41:05;;;;;;;4.28;1.55;;;25.00;51.30;;;25.66;40.66;101310.97;5160206;28;20046;-74
2023/06/03 10:43:39;;;;;;;2.08;1.48;;;25.00;51.10;;;25.82;41.13;101313.38;5138866;28;20034;-74